Amapala, Honduras
Current Conditions -  °F | °C
As of 6:00 PM on Wednesday 28 Jan 2015 (Local Time) from MHTG Reporting Station
Few Clouds Few Clouds  
Wind Chill: 68°   Ceiling: Unl
Heat Index: 68°   Visibility: 6mi
Dew Point: 50°   Wind: 17mph
Humidity: 52%   Direction: 360°N
Pressure: 30.09"   Gusts: NA
Location:  13.27°N, 87.65°W
Report Text: MHTG 290000Z 36015KT 9999 FEW032 20/10 Q1019 A3009 NOSIG
Loading
Personal Weather Stations






























Interactive Weather Map New forecast layout! Learn more

10-Day Weather Forecast

Advertisements
Track Severe Weather on mobile